Time;durP1;ratioP1;P1;durP2;ratioP2;P2;SDS_P1;SDS_P2;PMS_P1;PMS_P2;Temp;Humidity;BMP_temperature;BMP_pressure;BME280_temperature;BME280_humidity;BME280_pressure;Samples;Min_cycle;Max_cycle;Signal;HPM_P1;HPM_P2
2020/01/24 00:00:46;;;;;;;65.5;41.8;;;;;;;;;;;;;
2020/01/24 00:03:11;;;;;;;68.9;42.8;;;;;;;;;;;;;
2020/01/24 00:05:36;;;;;;;69.7;42.4;;;;;;;;;;;;;
2020/01/24 00:08:01;;;;;;;68.7;41.8;;;;;;;;;;;;;
2020/01/24 00:10:26;;;;;;;66.1;42;;;;;;;;;;;;;
2020/01/24 00:12:51;;;;;;;64.5;40.3;;;;;;;;;;;;;
2020/01/24 00:15:16;;;;;;;62.4;39.8;;;;;;;;;;;;;
2020/01/24 00:17:48;;;;;;;57.9;37.2;;;;;;;;;;;;;
2020/01/24 00:22:32;;;;;;;58.2;36.6;;;;;;;;;;;;;
2020/01/24 00:24:56;;;;;;;59;37.1;;;;;;;;;;;;;
2020/01/24 00:27:22;;;;;;;57.7;36.4;;;;;;;;;;;;;
2020/01/24 00:29:47;;;;;;;59.5;36.4;;;;;;;;;;;;;
2020/01/24 00:32:12;;;;;;;54.1;35.5;;;;;;;;;;;;;
2020/01/24 00:34:37;;;;;;;57.9;36.2;;;;;;;;;;;;;
2020/01/24 00:37:02;;;;;;;54.3;34.4;;;;;;;;;;;;;
2020/01/24 00:39:27;;;;;;;53.8;34.4;;;;;;;;;;;;;
2020/01/24 00:41:52;;;;;;;52.8;34.1;;;;;;;;;;;;;
2020/01/24 00:44:18;;;;;;;53.6;34.7;;;;;;;;;;;;;
2020/01/24 00:46:43;;;;;;;53.7;33.1;;;;;;;;;;;;;
2020/01/24 00:49:08;;;;;;;53.2;34.1;;;;;;;;;;;;;
2020/01/24 00:51:33;;;;;;;53.9;34.5;;;;;;;;;;;;;
2020/01/24 00:53:59;;;;;;;53.9;33.8;;;;;;;;;;;;;
2020/01/24 00:56:24;;;;;;;57;35.5;;;;;;;;;;;;;
2020/01/24 00:58:49;;;;;;;51.1;32.7;;;;;;;;;;;;;
2020/01/24 01:01:29;;;;;;;48.3;31.7;;;;;;;;;;;;;
2020/01/24 01:03:50;;;;;;;47;29.9;;;;;;;;;;;;;
2020/01/24 01:08:50;;;;;;;45.1;30;;;;;;;;;;;;;
2020/01/24 01:10:54;;;;;;;42.9;28.4;;;;;;;;;;;;;
2020/01/24 01:13:19;;;;;;;43.6;28.7;;;;;;;;;;;;;
2020/01/24 01:15:44;;;;;;;48.1;30.3;;;;;;;;;;;;;
2020/01/24 01:18:10;;;;;;;43.5;28.4;;;;;;;;;;;;;
2020/01/24 01:20:35;;;;;;;45.5;29.4;;;;;;;;;;;;;
2020/01/24 01:23:00;;;;;;;45.5;28.6;;;;;;;;;;;;;
2020/01/24 01:25:25;;;;;;;44.5;28.3;;;;;;;;;;;;;
2020/01/24 01:27:50;;;;;;;45.7;28.8;;;;;;;;;;;;;
2020/01/24 01:30:15;;;;;;;43.6;28.5;;;;;;;;;;;;;
2020/01/24 01:32:40;;;;;;;44;28.5;;;;;;;;;;;;;
2020/01/24 01:35:05;;;;;;;47.3;28.8;;;;;;;;;;;;;
2020/01/24 01:37:30;;;;;;;42.6;27.1;;;;;;;;;;;;;
2020/01/24 01:39:55;;;;;;;45.8;28.7;;;;;;;;;;;;;
2020/01/24 01:42:20;;;;;;;40.7;26.3;;;;;;;;;;;;;
2020/01/24 01:44:46;;;;;;;41.6;26.6;;;;;;;;;;;;;
2020/01/24 01:47:11;;;;;;;40.6;26.8;;;;;;;;;;;;;
2020/01/24 01:49:36;;;;;;;45.7;29;;;;;;;;;;;;;
2020/01/24 01:52:01;;;;;;;43.6;28.2;;;;;;;;;;;;;
2020/01/24 01:54:42;;;;;;;48.5;29.8;;;;;;;;;;;;;
2020/01/24 01:56:51;;;;;;;46;29.5;;;;;;;;;;;;;
2020/01/24 01:59:16;;;;;;;44.9;28.5;;;;;;;;;;;;;
2020/01/24 02:01:41;;;;;;;49.5;30.2;;;;;;;;;;;;;
2020/01/24 02:04:06;;;;;;;49.2;31.4;;;;;;;;;;;;;
2020/01/24 02:06:32;;;;;;;45.8;29.1;;;;;;;;;;;;;
2020/01/24 02:08:57;;;;;;;50.8;30.6;;;;;;;;;;;;;
2020/01/24 02:11:23;;;;;;;48.8;29.8;;;;;;;;;;;;;
2020/01/24 02:13:48;;;;;;;47.6;30.6;;;;;;;;;;;;;
2020/01/24 02:16:13;;;;;;;44.8;29;;;;;;;;;;;;;
2020/01/24 02:18:42;;;;;;;44;28.7;;;;;;;;;;;;;
2020/01/24 02:21:07;;;;;;;47.9;29.1;;;;;;;;;;;;;
2020/01/24 02:23:28;;;;;;;43.2;27.5;;;;;;;;;;;;;
2020/01/24 02:25:57;;;;;;;42.8;27.4;;;;;;;;;;;;;
2020/01/24 02:28:26;;;;;;;42.1;26.3;;;;;;;;;;;;;
2020/01/24 02:30:58;;;;;;;45.9;29;;;;;;;;;;;;;
2020/01/24 02:33:08;;;;;;;43.2;27.9;;;;;;;;;;;;;
2020/01/24 02:35:33;;;;;;;37.1;24.6;;;;;;;;;;;;;
2020/01/24 02:37:59;;;;;;;36.6;23.9;;;;;;;;;;;;;
2020/01/24 02:40:24;;;;;;;36.9;24;;;;;;;;;;;;;
2020/01/24 02:42:49;;;;;;;38.3;23.8;;;;;;;;;;;;;
2020/01/24 02:45:14;;;;;;;40.7;25;;;;;;;;;;;;;
2020/01/24 02:47:39;;;;;;;37.1;23.5;;;;;;;;;;;;;
2020/01/24 02:50:04;;;;;;;37.2;23.9;;;;;;;;;;;;;
2020/01/24 02:52:30;;;;;;;42;23.2;;;;;;;;;;;;;
2020/01/24 02:54:54;;;;;;;36.5;23;;;;;;;;;;;;;
2020/01/24 02:57:19;;;;;;;36.9;22.1;;;;;;;;;;;;;
2020/01/24 02:59:45;;;;;;;32.6;20.7;;;;;;;;;;;;;
2020/01/24 03:02:10;;;;;;;34;21.3;;;;;;;;;;;;;
2020/01/24 03:04:35;;;;;;;34.1;21.2;;;;;;;;;;;;;
2020/01/24 03:07:05;;;;;;;34.7;20.7;;;;;;;;;;;;;
2020/01/24 03:09:25;;;;;;;37;23.9;;;;;;;;;;;;;
2020/01/24 03:11:50;;;;;;;497.5;269.6;;;;;;;;;;;;;
2020/01/24 03:14:15;;;;;;;44.7;24.8;;;;;;;;;;;;;
2020/01/24 03:16:40;;;;;;;57;31.8;;;;;;;;;;;;;
2020/01/24 03:19:05;;;;;;;34.2;21.1;;;;;;;;;;;;;
2020/01/24 03:21:30;;;;;;;32.8;19.8;;;;;;;;;;;;;
2020/01/24 03:23:55;;;;;;;34.9;20.6;;;;;;;;;;;;;
2020/01/24 03:26:20;;;;;;;28.3;18.7;;;;;;;;;;;;;
2020/01/24 03:28:45;;;;;;;30.7;19.4;;;;;;;;;;;;;
2020/01/24 03:31:23;;;;;;;28.5;17.9;;;;;;;;;;;;;
2020/01/24 03:33:58;;;;;;;26.6;17.3;;;;;;;;;;;;;
2020/01/24 03:36:01;;;;;;;32.3;21.7;;;;;;;;;;;;;
2020/01/24 03:38:26;;;;;;;25.3;17.2;;;;;;;;;;;;;
2020/01/24 03:40:51;;;;;;;28.8;18.3;;;;;;;;;;;;;
2020/01/24 03:43:17;;;;;;;27.6;16.7;;;;;;;;;;;;;
2020/01/24 03:45:42;;;;;;;33.9;22;;;;;;;;;;;;;
2020/01/24 03:48:07;;;;;;;37.4;23.4;;;;;;;;;;;;;
2020/01/24 03:50:33;;;;;;;27.1;16.7;;;;;;;;;;;;;
2020/01/24 03:52:58;;;;;;;25.5;15;;;;;;;;;;;;;
2020/01/24 03:55:23;;;;;;;28.2;14.8;;;;;;;;;;;;;
2020/01/24 03:57:48;;;;;;;22.2;13.2;;;;;;;;;;;;;
2020/01/24 04:02:30;;;;;;;22.5;14;;;;;;;-4.04;77.52734;943.8912;;;;
2020/01/24 04:04:55;;;;;;;23.6;14;;;;;;;-3.98;77.42676;943.9794;;;;
2020/01/24 04:07:20;;;;;;;21;11.9;;;;;;;-4.04;78.87305;943.988;;;;
2020/01/24 04:09:45;;;;;;;21.2;13.4;;;;;;;-4.06;79.41016;943.9928;;;;
2020/01/24 04:12:10;;;;;;;22.3;13;;;;;;;-4.08;79.57031;943.9676;;;;
2020/01/24 04:14:35;;;;;;;17.3;10.1;;;;;;;-4.03;79.60449;944.0333;;;;
2020/01/24 04:17:12;;;;;;;16.5;9.9;;;;;;;-4.07;79.66211;944.0558;;;;
2020/01/24 04:21:51;;;;;;;16.2;9.3;;;;;;;-3.97;78.57813;944.0712;;;;
2020/01/24 04:24:17;;;;;;;14.1;9.2;;;;;;;-3.97;78.32422;944.1191;;;;
2020/01/24 04:26:42;;;;;;;12.9;8.1;;;;;;;-3.99;79.44629;944.1699;;;;
2020/01/24 04:29:07;;;;;;;12.3;8.4;;;;;;;-3.96;79.40723;944.1799;;;;
2020/01/24 04:31:32;;;;;;;16.8;9;;;;;;;-3.96;78.92188;944.1811;;;;
2020/01/24 04:33:57;;;;;;;13;8.4;;;;;;;-3.87;78.47461;944.1373;;;;
2020/01/24 04:36:22;;;;;;;14.6;9.2;;;;;;;-3.85;78.68848;944.1164;;;;
2020/01/24 04:38:47;;;;;;;14.7;8.2;;;;;;;-3.88;79.14648;944.1842;;;;
2020/01/24 04:41:12;;;;;;;16.3;8.3;;;;;;;-3.98;79.7793;944.0829;;;;
2020/01/24 04:43:37;;;;;;;13.4;8.1;;;;;;;-4.08;80.25586;944.1369;;;;
2020/01/24 04:46:06;;;;;;;14.5;7.4;;;;;;;-4.09;80.47559;944.0061;;;;
2020/01/24 04:48:29;;;;;;;13.6;7.3;;;;;;;-4.17;81.9375;944.0628;;;;
2020/01/24 04:50:53;;;;;;;14.1;8.7;;;;;;;-4.24;82.57422;944.0637;;;;
2020/01/24 04:53:18;;;;;;;15.6;10.1;;;;;;;-4.34;84.13086;944.0728;;;;
2020/01/24 04:55:43;;;;;;;15.5;10.2;;;;;;;-4.22;83.91406;944.0603;;;;
2020/01/24 04:58:08;;;;;;;16.9;9.5;;;;;;;-4.25;83.74121;944.0929;;;;
2020/01/24 05:01:30;;;;;;;13.5;8.2;;;;;;;-4.19;83.85156;944.0572;;;;
2020/01/24 05:03:55;;;;;;;11.4;7.3;;;;;;;-4.21;85.07129;944.0675;;;;
2020/01/24 05:06:20;;;;;;;14;6.9;;;;;;;-4.18;86.3125;944.0663;;;;
2020/01/24 05:08:45;;;;;;;10.5;5.8;;;;;;;-4.1;86.75;944.0706;;;;
2020/01/24 05:11:10;;;;;;;11.4;6.1;;;;;;;-4.09;86.70801;944.0839;;;;
2020/01/24 05:13:35;;;;;;;109.1;56.9;;;;;;;-3.87;86.01172;944.0787;;;;
2020/01/24 05:16:00;;;;;;;13.1;7.1;;;;;;;-3.66;84.62305;943.9994;;;;
2020/01/24 05:18:26;;;;;;;41.3;16.1;;;;;;;-3.75;84.93164;944.0759;;;;
2020/01/24 05:20:51;;;;;;;28.6;12.2;;;;;;;-3.83;85.28125;944.0236;;;;
2020/01/24 05:23:16;;;;;;;26.6;10.8;;;;;;;-3.89;85.34766;944.0101;;;;
2020/01/24 05:25:41;;;;;;;51.2;19.9;;;;;;;-3.88;85.57031;944.0467;;;;
2020/01/24 05:28:06;;;;;;;157.7;61.8;;;;;;;-3.71;84.71094;944.0108;;;;
2020/01/24 05:30:43;;;;;;;479.4;224.8;;;;;;;-3.51;84.07715;943.9996;;;;
2020/01/24 05:32:59;;;;;;;190.1;76.8;;;;;;;-3.41;83.58887;943.997;;;;
2020/01/24 05:35:23;;;;;;;89.8;42.1;;;;;;;-3.37;83.39746;944.0111;;;;
2020/01/24 05:37:49;;;;;;;38.5;20.1;;;;;;;-3.31;83.06543;944.0524;;;;
2020/01/24 05:40:14;;;;;;;99.2;46.8;;;;;;;-3.43;83.92773;943.9676;;;;
2020/01/24 05:42:39;;;;;;;56.6;26.6;;;;;;;-3.49;84.49023;944.0078;;;;
2020/01/24 05:45:04;;;;;;;35.5;16.9;;;;;;;-3.43;84.25977;944.0489;;;;
2020/01/24 05:47:34;;;;;;;30.5;14.4;;;;;;;-3.4;84.0332;944.0606;;;;
2020/01/24 05:49:55;;;;;;;23.8;12.7;;;;;;;-3.37;83.9502;944.0023;;;;
2020/01/24 05:52:19;;;;;;;20.2;10.2;;;;;;;-3.37;84.04004;944.0939;;;;
2020/01/24 05:54:44;;;;;;;17.2;9.9;;;;;;;-3.29;83.6582;944.0504;;;;
2020/01/24 05:57:09;;;;;;;17.1;8.3;;;;;;;-3.18;83.25781;944.0547;;;;
2020/01/24 05:59:35;;;;;;;21.2;10.3;;;;;;;-3.17;83.06152;944.0968;;;;
2020/01/24 06:02:00;;;;;;;38.9;25.8;;;;;;;-3.1;82.30273;944.1339;;;;
2020/01/24 06:04:26;;;;;;;11.8;7;;;;;;;-3.06;82.65137;944.1223;;;;
2020/01/24 06:06:52;;;;;;;91;53;;;;;;;-3.24;83.5127;944.1411;;;;
2020/01/24 06:09:17;;;;;;;13.5;7.8;;;;;;;-3.43;84.61328;944.1512;;;;
2020/01/24 06:11:42;;;;;;;10.9;5.8;;;;;;;-3.53;85.22266;944.2045;;;;
2020/01/24 06:14:08;;;;;;;6.9;4.6;;;;;;;-3.53;85.49902;944.2902;;;;
2020/01/24 06:16:33;;;;;;;7;4.5;;;;;;;-3.53;85.80762;944.2681;;;;
2020/01/24 06:18:58;;;;;;;23.2;14.5;;;;;;;-3.37;85.20996;944.3527;;;;
2020/01/24 06:21:23;;;;;;;27.3;14.8;;;;;;;-3.18;83.93457;944.4008;;;;
2020/01/24 06:23:48;;;;;;;44.6;26;;;;;;;-3.12;84.13281;944.267;;;;
2020/01/24 06:26:14;;;;;;;40.2;21;;;;;;;-3.03;83.88379;944.4475;;;;
2020/01/24 06:28:39;;;;;;;30.3;15.6;;;;;;;-2.96;82.81445;944.4802;;;;
2020/01/24 06:31:04;;;;;;;21.2;11.5;;;;;;;-2.91;81.73047;944.483;;;;
2020/01/24 06:33:29;;;;;;;24;14.3;;;;;;;-2.9;82.00879;944.5349;;;;
2020/01/24 06:35:54;;;;;;;35.8;21;;;;;;;-2.94;81.63672;944.509;;;;
2020/01/24 06:38:19;;;;;;;25.7;14.6;;;;;;;-3.06;82.85059;944.507;;;;
2020/01/24 06:40:45;;;;;;;32.8;18.4;;;;;;;-3;82.23242;944.5291;;;;
2020/01/24 06:43:10;;;;;;;40;22.6;;;;;;;-2.92;81.99609;944.53;;;;
2020/01/24 06:45:36;;;;;;;62.6;36.5;;;;;;;-2.94;82.15625;944.5193;;;;
2020/01/24 06:48:01;;;;;;;35.3;21.8;;;;;;;-2.92;82.29297;944.5178;;;;
2020/01/24 06:50:27;;;;;;;31.5;18.3;;;;;;;-3.06;82.96094;944.4868;;;;
2020/01/24 06:55:16;;;;;;;31;18;;;;;;;-2.97;82.35938;944.4894;;;;
2020/01/24 06:57:41;;;;;;;32.9;21.7;;;;;;;-3.11;84.5127;944.4908;;;;
2020/01/24 07:00:06;;;;;;;31.7;21.8;;;;;;;-2.96;84.37598;944.4182;;;;
2020/01/24 07:02:32;;;;;;;31.4;19.9;;;;;;;-2.8;83.31152;944.5623;;;;
2020/01/24 07:04:57;;;;;;;25.8;17.3;;;;;;;-2.77;82.99805;944.5732;;;;
2020/01/24 07:07:22;;;;;;;28;18.2;;;;;;;-2.81;82.76953;944.5991;;;;
2020/01/24 07:09:47;;;;;;;31.2;19.9;;;;;;;-2.9;82.8291;944.6208;;;;
2020/01/24 07:12:12;;;;;;;35.8;20.9;;;;;;;-2.98;83.37695;944.6323;;;;
2020/01/24 07:14:38;;;;;;;26.5;16.3;;;;;;;-3.08;83.89746;944.5455;;;;
2020/01/24 07:17:02;;;;;;;25.6;15.4;;;;;;;-3.01;83.95605;944.6259;;;;
2020/01/24 07:19:27;;;;;;;22.2;12.6;;;;;;;-2.94;84.20313;944.6981;;;;
2020/01/24 07:21:53;;;;;;;23.9;15.2;;;;;;;-2.74;87.33008;944.6545;;;;
2020/01/24 07:24:18;;;;;;;23.1;14;;;;;;;-2.55;85.83984;944.7269;;;;
2020/01/24 07:26:44;;;;;;;24.3;13.3;;;;;;;-2.45;84.0791;944.6833;;;;
2020/01/24 07:29:09;;;;;;;22.6;13.6;;;;;;;-2.18;82.92578;944.5853;;;;
2020/01/24 07:31:34;;;;;;;25.1;15;;;;;;;-1.96;81.11816;944.7328;;;;
2020/01/24 07:34:00;;;;;;;24.7;15.1;;;;;;;-1.74;80.20605;944.6766;;;;
2020/01/24 07:36:24;;;;;;;24.3;12.7;;;;;;;-1.63;79.92578;944.7003;;;;
2020/01/24 07:38:50;;;;;;;22.2;13.4;;;;;;;-1.3;78.78027;944.6609;;;;
2020/01/24 07:41:21;;;;;;;18.6;10.9;;;;;;;-1.03;77.49609;944.7075;;;;
2020/01/24 07:43:46;;;;;;;15.4;9.7;;;;;;;-0.78;76.1416;944.742;;;;
2020/01/24 07:46:11;;;;;;;18.8;12.1;;;;;;;-0.37;74.94824;944.7305;;;;
2020/01/24 07:48:36;;;;;;;22.3;12.5;;;;;;;0.34;72.3877;944.6465;;;;
2020/01/24 07:51:02;;;;;;;23.5;13.6;;;;;;;1.21;68.89355;944.6599;;;;
2020/01/24 07:53:27;;;;;;;20.7;12.7;;;;;;;2.04;66.27441;944.627;;;;
2020/01/24 07:55:52;;;;;;;19;13;;;;;;;2.82;63.84082;944.5344;;;;
2020/01/24 07:58:17;;;;;;;17.8;12.6;;;;;;;3.84;60.8457;944.6563;;;;
2020/01/24 08:00:58;;;;;;;23;14.7;;;;;;;4.51;57.00098;944.5466;;;;
2020/01/24 08:03:23;;;;;;;20.4;12.7;;;;;;;3.97;57.9873;944.6339;;;;
2020/01/24 08:05:50;;;;;;;21.4;13.8;;;;;;;4.17;57.48438;944.5828;;;;
2020/01/24 08:08:14;;;;;;;29.8;19.7;;;;;;;3.94;58.28613;944.616;;;;
2020/01/24 08:10:51;;;;;;;34.2;21.2;;;;;;;3.25;60.55957;944.6443;;;;
2020/01/24 08:13:04;;;;;;;31.7;18.4;;;;;;;3.03;61.44824;944.6375;;;;
2020/01/24 08:15:29;;;;;;;29.7;17;;;;;;;2.81;62.8418;944.6708;;;;
2020/01/24 08:17:54;;;;;;;22.5;14.8;;;;;;;3.01;62.87109;944.6775;;;;
2020/01/24 08:20:20;;;;;;;19.8;12.1;;;;;;;4.3;59.24609;944.6532;;;;
2020/01/24 08:22:45;;;;;;;21.6;12;;;;;;;5.39;55.96777;944.668;;;;
2020/01/24 08:25:10;;;;;;;18.9;12.4;;;;;;;6.6;52.86816;944.6654;;;;
2020/01/24 08:27:35;;;;;;;22.9;14.4;;;;;;;7.5;51.58496;944.6266;;;;
2020/01/24 08:30:00;;;;;;;19.2;13;;;;;;;8.18;47.91992;944.5472;;;;
2020/01/24 08:32:25;;;;;;;25.2;13;;;;;;;8.78;46.65527;944.5471;;;;
2020/01/24 08:34:50;;;;;;;17.3;11.2;;;;;;;9.06;45.58301;944.5764;;;;
2020/01/24 08:37:15;;;;;;;17.8;11.7;;;;;;;9.51;44.21777;944.5617;;;;
2020/01/24 08:39:40;;;;;;;17.5;11.3;;;;;;;9.89;42.90039;944.5208;;;;
2020/01/24 08:42:06;;;;;;;18.7;13;;;;;;;10.3;42.14258;944.4738;;;;
2020/01/24 08:44:31;;;;;;;20.1;14;;;;;;;10.14;42.51465;944.5049;;;;
2020/01/24 08:46:56;;;;;;;22.4;14.5;;;;;;;9.92;42.82324;944.5301;;;;
2020/01/24 08:49:21;;;;;;;26.1;15.6;;;;;;;10.11;42.94434;944.5011;;;;
2020/01/24 08:51:46;;;;;;;23.2;14.4;;;;;;;10.38;42.21875;944.5119;;;;
2020/01/24 08:54:11;;;;;;;43.1;36.8;;;;;;;10.41;42.44922;944.575;;;;
2020/01/24 08:56:36;;;;;;;25.2;20.6;;;;;;;9.69;43.66699;944.4897;;;;
2020/01/24 08:59:01;;;;;;;15.6;10.2;;;;;;;8.44;46.8584;944.5822;;;;
2020/01/24 09:01:28;;;;;;;27.4;21.5;;;;;;;8.09;48.06836;944.5945;;;;
2020/01/24 09:03:53;;;;;;;13.9;9.9;;;;;;;7.88;48.96387;944.5722;;;;
2020/01/24 09:06:19;;;;;;;15.6;10;;;;;;;7.22;50.30566;944.555;;;;
2020/01/24 09:08:44;;;;;;;17;10;;;;;;;6.16;53.75195;944.5869;;;;
2020/01/24 09:11:09;;;;;;;20.5;13.3;;;;;;;5.48;56.65723;944.5848;;;;
2020/01/24 09:13:35;;;;;;;13.1;8.4;;;;;;;5.02;57.81348;944.5614;;;;
2020/01/24 09:18:26;;;;;;;13.6;6.8;;;;;;;4.36;57.97168;944.5408;;;;
2020/01/24 09:20:51;;;;;;;11.8;6.7;;;;;;;4.33;59.75781;944.5831;;;;
2020/01/24 09:23:17;;;;;;;20;10.4;;;;;;;4.34;60.92871;944.5313;;;;
2020/01/24 09:25:42;;;;;;;13.6;7.9;;;;;;;4.25;62.73926;944.522;;;;
2020/01/24 09:28:07;;;;;;;11.5;7.4;;;;;;;4.27;62.93262;944.5614;;;;
2020/01/24 09:30:33;;;;;;;15.6;7.9;;;;;;;4.26;62.49414;944.5368;;;;
2020/01/24 09:32:59;;;;;;;13.7;7.4;;;;;;;4.18;61.68164;944.5359;;;;
2020/01/24 09:35:24;;;;;;;18.4;10.2;;;;;;;4.34;61.70605;944.5637;;;;
2020/01/24 09:37:49;;;;;;;19.8;12.8;;;;;;;4.57;60.28711;944.5566;;;;
2020/01/24 09:40:14;;;;;;;30.5;17.1;;;;;;;4.66;58.39648;944.5747;;;;
2020/01/24 09:42:39;;;;;;;61.9;34.5;;;;;;;4.73;58.87793;944.6262;;;;
2020/01/24 09:45:04;;;;;;;45.9;26.7;;;;;;;4.77;60.85547;944.6503;;;;
2020/01/24 09:47:29;;;;;;;85.4;47.6;;;;;;;4.56;62.8418;944.6918;;;;
2020/01/24 09:49:54;;;;;;;49.5;28.2;;;;;;;4.46;63.52539;944.6283;;;;
2020/01/24 09:52:20;;;;;;;20.1;12.3;;;;;;;4.68;63.96191;944.6945;;;;
2020/01/24 09:54:45;;;;;;;17.1;10.6;;;;;;;4.8;63.54102;944.7159;;;;
2020/01/24 09:57:10;;;;;;;54.9;31.3;;;;;;;4.83;63.58008;944.5956;;;;
2020/01/24 09:59:36;;;;;;;84.4;51.6;;;;;;;4.86;63.51563;944.688;;;;
2020/01/24 10:02:01;;;;;;;46.2;27.3;;;;;;;5.1;61.05957;944.6594;;;;
2020/01/24 10:04:27;;;;;;;32.7;19;;;;;;;5.13;60.74805;944.6139;;;;
2020/01/24 10:06:51;;;;;;;19.2;10.5;;;;;;;5.2;59.98047;944.6372;;;;
2020/01/24 10:09:16;;;;;;;19;10.4;;;;;;;5.41;60.13477;944.6943;;;;
2020/01/24 10:11:42;;;;;;;16.4;11.1;;;;;;;5.33;58.12695;944.7108;;;;
2020/01/24 10:14:07;;;;;;;35.7;22.2;;;;;;;5.39;58.21289;944.6682;;;;
2020/01/24 10:16:32;;;;;;;15.5;10.2;;;;;;;5.45;59.52051;944.6139;;;;
2020/01/24 10:18:58;;;;;;;13.4;8.9;;;;;;;5.64;59.08301;944.5605;;;;
2020/01/24 10:21:23;;;;;;;14.7;8.9;;;;;;;5.84;58.64746;944.5287;;;;
2020/01/24 10:23:48;;;;;;;11.8;6.1;;;;;;;5.84;57.41602;944.4756;;;;
2020/01/24 10:28:01;;;;;;;7.4;4.2;;;;;;;5.74;54.875;944.502;;;;
2020/01/24 10:30:27;;;;;;;6.4;3.1;;;;;;;5.85;54.54883;944.4428;;;;
2020/01/24 10:32:52;;;;;;;6.9;3.7;;;;;;;5.98;54.43066;944.3887;;;;
2020/01/24 10:35:17;;;;;;;8;3.9;;;;;;;6.15;52.86914;944.3611;;;;
2020/01/24 10:37:42;;;;;;;10;3.8;;;;;;;6.3;53.64648;944.3376;;;;
2020/01/24 10:40:07;;;;;;;6.6;3.2;;;;;;;6.47;53.28125;944.2194;;;;
2020/01/24 10:42:38;;;;;;;8.5;3.3;;;;;;;6.66;51.49609;944.1851;;;;
2020/01/24 10:45:04;;;;;;;8.2;3;;;;;;;6.9;52.15918;944.1666;;;;
2020/01/24 10:47:29;;;;;;;9.1;3.1;;;;;;;7.11;50.42871;944.0721;;;;
2020/01/24 10:49:54;;;;;;;19.2;3.3;;;;;;;7.29;49.15918;944.0575;;;;
2020/01/24 10:52:19;;;;;;;11.3;4;;;;;;;7.54;48.31348;944.048;;;;
2020/01/24 10:54:44;;;;;;;18.2;4.4;;;;;;;7.7;47.51465;944.0267;;;;
2020/01/24 10:57:09;;;;;;;35;5.2;;;;;;;7.75;47.53125;944.0393;;;;
2020/01/24 10:59:34;;;;;;;22.6;5;;;;;;;7.82;45.32715;943.9988;;;;
2020/01/24 11:02:02;;;;;;;27;4.9;;;;;;;7.92;45.28125;943.9732;;;;
2020/01/24 11:04:24;;;;;;;51.6;6.7;;;;;;;8.15;45.76953;943.8798;;;;
2020/01/24 11:06:50;;;;;;;52.3;5.4;;;;;;;8.24;43.51953;943.8645;;;;
2020/01/24 11:09:15;;;;;;;31.9;5.2;;;;;;;8.49;43.80664;943.8836;;;;
2020/01/24 11:11:44;;;;;;;17;4.8;;;;;;;8.63;43.01367;943.8859;;;;
2020/01/24 11:14:09;;;;;;;50.8;6.8;;;;;;;8.6;43.38574;943.83;;;;
2020/01/24 11:16:34;;;;;;;37.3;6.9;;;;;;;8.77;43.36914;943.8329;;;;
2020/01/24 11:18:59;;;;;;;104.3;11.8;;;;;;;8.89;45.76953;943.7514;;;;
2020/01/24 11:21:24;;;;;;;84.7;11.2;;;;;;;8.97;45.43652;943.7858;;;;
2020/01/24 11:23:50;;;;;;;44.5;9.7;;;;;;;8.86;45.48145;943.7299;;;;
2020/01/24 11:26:15;;;;;;;74.6;9.6;;;;;;;8.99;46.01855;943.6814;;;;
2020/01/24 11:28:40;;;;;;;39.4;6.9;;;;;;;9.12;44.51953;943.5928;;;;
2020/01/24 11:33:31;;;;;;;35.2;5.4;;;;;;;9.37;43.7373;943.6258;;;;
2020/01/24 11:35:55;;;;;;;70.9;9.5;;;;;;;9.47;43.34766;943.5797;;;;
2020/01/24 11:38:20;;;;;;;56.5;7;;;;;;;9.66;43.8125;943.5452;;;;
2020/01/24 11:40:46;;;;;;;20.7;5.6;;;;;;;9.83;41.42383;943.4512;;;;
2020/01/24 11:43:11;;;;;;;14.8;5.2;;;;;;;9.83;41.43555;943.5005;;;;
2020/01/24 11:45:41;;;;;;;8.5;3.5;;;;;;;9.87;40.44629;943.44;;;;
2020/01/24 11:48:06;;;;;;;14.9;3.1;;;;;;;9.89;41.17871;943.3794;;;;
2020/01/24 11:50:42;;;;;;;16.3;3.5;;;;;;;10.03;39.07031;943.3775;;;;
2020/01/24 11:53:11;;;;;;;15.3;3.4;;;;;;;10.12;39.45605;943.3323;;;;
2020/01/24 11:55:47;;;;;;;32.1;4.8;;;;;;;10.53;40.46387;943.3447;;;;
2020/01/24 11:58:12;;;;;;;32.2;6.4;;;;;;;11.98;37.92969;943.2456;;;;
2020/01/24 12:03:03;;;;;;;29.3;6.6;;;;;;;15.49;30.92676;943.1945;;;;
2020/01/24 12:05:42;;;;;;;32.9;6.4;;;;;;;16.74;29.64844;943.1711;;;;
2020/01/24 12:08:07;;;;;;;37.4;7.3;;;;;;;18.7;26.15137;943.0804;;;;
2020/01/24 12:10:45;;;;;;;25.7;7;;;;;;;19.49;24.19336;943.0725;;;;
2020/01/24 12:13:10;;;;;;;56.6;9.9;;;;;;;20.19;23.4375;943.0211;;;;
2020/01/24 12:15:36;;;;;;;38.3;8.2;;;;;;;19.96;23.81055;943.0131;;;;
2020/01/24 12:18:01;;;;;;;23.7;8.2;;;;;;;19.68;23.01465;943.0011;;;;
2020/01/24 12:20:26;;;;;;;42.8;9;;;;;;;20.45;23.42773;942.9211;;;;
2020/01/24 12:23:11;;;;;;;21.4;8.4;;;;;;;19.98;22.80859;942.8809;;;;
2020/01/24 12:25:37;;;;;;;32.7;7.2;;;;;;;19.71;24.37988;942.8995;;;;
2020/01/24 12:28:14;;;;;;;32.6;6.4;;;;;;;20.16;23.82129;942.8088;;;;
2020/01/24 12:30:39;;;;;;;25.5;4.8;;;;;;;20.03;22.99805;942.7978;;;;
2020/01/24 12:33:04;;;;;;;22.8;4.3;;;;;;;19.88;22.86133;942.7697;;;;
2020/01/24 12:35:41;;;;;;;16.1;4.7;;;;;;;19.5;22.43457;942.6958;;;;
2020/01/24 12:38:06;;;;;;;13.9;4.4;;;;;;;19.75;21.81738;942.6264;;;;
2020/01/24 12:40:37;;;;;;;14.5;4.7;;;;;;;20.14;22.05762;942.6679;;;;
2020/01/24 12:43:02;;;;;;;17.8;4.5;;;;;;;20.8;21.26172;942.5786;;;;
2020/01/24 12:45:27;;;;;;;15.1;4.5;;;;;;;21.99;20.60352;942.5998;;;;
2020/01/24 12:47:52;;;;;;;16.5;4.1;;;;;;;23.36;19.13867;942.5982;;;;
2020/01/24 12:50:17;;;;;;;18.1;3.6;;;;;;;24.27;18.25879;942.5277;;;;
2020/01/24 12:52:42;;;;;;;8.3;2.6;;;;;;;24.92;16.59863;942.5856;;;;
2020/01/24 12:55:11;;;;;;;12.7;3.1;;;;;;;24.99;16.03516;942.4883;;;;
2020/01/24 12:57:32;;;;;;;8.3;3;;;;;;;25.09;17.99707;942.4906;;;;
2020/01/24 12:59:58;;;;;;;7.7;3.7;;;;;;;25.35;18.65723;942.4778;;;;
2020/01/24 13:02:23;;;;;;;9.2;4;;;;;;;25.56;17.76855;942.4075;;;;
2020/01/24 13:04:48;;;;;;;12.6;4.4;;;;;;;25.42;16.94727;942.3658;;;;
2020/01/24 13:07:26;;;;;;;51.8;38.9;;;;;;;25.4;18.62402;942.4042;;;;
2020/01/24 13:09:53;;;;;;;154.1;110.8;;;;;;;25.53;20.7793;942.3477;;;;
2020/01/24 13:12:18;;;;;;;124;89.5;;;;;;;25.47;20.78906;942.2927;;;;
2020/01/24 13:14:49;;;;;;;89.9;61.6;;;;;;;25.32;20.51074;942.2726;;;;
2020/01/24 13:17:26;;;;;;;88.6;59.8;;;;;;;25.02;20.87402;942.2818;;;;
2020/01/24 13:19:47;;;;;;;76.5;47.6;;;;;;;24.78;21.55859;942.2006;;;;
2020/01/24 13:22:25;;;;;;;71.2;43.2;;;;;;;24.34;22.16211;942.154;;;;
2020/01/24 13:24:50;;;;;;;58.9;34.1;;;;;;;24.31;22.05371;942.2148;;;;
2020/01/24 13:27:17;;;;;;;40.3;25.7;;;;;;;24.16;22.02344;942.1806;;;;
2020/01/24 13:29:42;;;;;;;43.2;25;;;;;;;24.25;22.02734;942.1149;;;;
2020/01/24 13:32:20;;;;;;;43.1;29.8;;;;;;;24.32;22.06641;942.1003;;;;
2020/01/24 13:34:42;;;;;;;31.6;21.3;;;;;;;24.22;22.09668;942.0986;;;;
2020/01/24 13:37:07;;;;;;;31.4;19.2;;;;;;;24.07;22.4541;942.1197;;;;
2020/01/24 13:39:32;;;;;;;26.3;15.7;;;;;;;23.79;22.67578;942.0883;;;;
2020/01/24 13:42:03;;;;;;;26.7;14.3;;;;;;;23.28;23.64844;942.0622;;;;
2020/01/24 13:44:28;;;;;;;27.3;15.7;;;;;;;22.74;24.16016;942.0616;;;;
2020/01/24 13:46:53;;;;;;;25.3;14.7;;;;;;;22.47;24.69727;942.1262;;;;
2020/01/24 13:49:18;;;;;;;22;12.2;;;;;;;22.48;24.89746;942.0637;;;;
2020/01/24 13:51:44;;;;;;;24.3;12.4;;;;;;;22.5;24.83984;942.0614;;;;
2020/01/24 13:54:08;;;;;;;25.4;13.3;;;;;;;22.42;25.02344;942.0122;;;;
2020/01/24 13:56:33;;;;;;;26.3;14.7;;;;;;;21.77;25.95801;942.0042;;;;
2020/01/24 13:58:59;;;;;;;34;16.8;;;;;;;20.79;27.22266;942.0242;;;;
2020/01/24 14:01:25;;;;;;;28.2;16;;;;;;;20.29;27.80957;942.0179;;;;
2020/01/24 14:03:51;;;;;;;27;15;;;;;;;19.55;28.78906;941.9617;;;;
2020/01/24 14:06:29;;;;;;;25.8;14.6;;;;;;;19.1;29.27246;941.9706;;;;
2020/01/24 14:08:54;;;;;;;20.5;12.6;;;;;;;18.86;29.46582;941.9632;;;;
2020/01/24 14:11:28;;;;;;;20.2;11.9;;;;;;;18.87;29.34961;941.9904;;;;
2020/01/24 14:13:54;;;;;;;23.2;11.1;;;;;;;18.99;28.83398;941.9456;;;;
2020/01/24 14:16:19;;;;;;;22.8;11.3;;;;;;;19.03;28.84863;941.946;;;;
2020/01/24 14:18:44;;;;;;;26.9;10.8;;;;;;;18.98;28.65918;941.9078;;;;
2020/01/24 14:21:09;;;;;;;21.5;10.3;;;;;;;19.06;29.4209;941.8834;;;;
2020/01/24 14:23:34;;;;;;;20;10.3;;;;;;;19.3;29.50586;941.9456;;;;
2020/01/24 14:25:59;;;;;;;22.3;10.1;;;;;;;19.43;28.59473;941.9347;;;;
2020/01/24 14:28:34;;;;;;;51.1;16.9;;;;;;;19.49;29.82227;942.0086;;;;
2020/01/24 14:30:59;;;;;;;52.9;17.7;;;;;;;19.4;29.82813;941.9833;;;;
2020/01/24 14:33:24;;;;;;;65.9;20.2;;;;;;;19.23;30.0498;941.9783;;;;
2020/01/24 14:35:49;;;;;;;40.5;15;;;;;;;19.03;29.81445;942.0017;;;;
2020/01/24 14:38:14;;;;;;;52.4;16.2;;;;;;;18.69;31.62988;941.9551;;;;
2020/01/24 14:40:44;;;;;;;55.7;17.7;;;;;;;18.32;31.78906;941.8647;;;;
2020/01/24 14:43:06;;;;;;;66.8;19.9;;;;;;;17.95;33.00488;941.9426;;;;
2020/01/24 14:45:47;;;;;;;58.6;20.5;;;;;;;17.33;33.79395;941.9327;;;;
2020/01/24 14:48:07;;;;;;;61.8;20.2;;;;;;;16.91;34.39844;941.8654;;;;
2020/01/24 14:50:35;;;;;;;35.1;14;;;;;;;16.64;33.8916;941.9266;;;;
2020/01/24 14:53:51;;;;;;;56.5;14.9;;;;;;;16.28;36.69727;941.8756;;;;
2020/01/24 14:55:17;;;;;;;45.5;11.9;;;;;;;15.89;35.40527;941.8516;;;;
2020/01/24 14:57:41;;;;;;;79.2;15.5;;;;;;;15.51;36.65625;941.7914;;;;
2020/01/24 15:00:09;;;;;;;59.6;15.9;;;;;;;14.68;38.85742;941.8499;;;;
2020/01/24 15:02:35;;;;;;;50.8;17.9;;;;;;;13.67;39.89551;941.8876;;;;
2020/01/24 15:05:00;;;;;;;47.8;16.2;;;;;;;12.55;42.38379;941.9066;;;;
2020/01/24 15:07:25;;;;;;;59.4;19.1;;;;;;;11.84;44.36426;941.8834;;;;
2020/01/24 15:09:50;;;;;;;30.4;14;;;;;;;11.21;44.70117;941.8652;;;;
2020/01/24 15:12:15;;;;;;;42.4;16.2;;;;;;;11.07;46.41211;941.8745;;;;
2020/01/24 15:14:40;;;;;;;46.5;18.4;;;;;;;10.88;46.41602;941.8511;;;;
2020/01/24 15:17:05;;;;;;;54.7;24.8;;;;;;;10.7;47.24121;941.8745;;;;
2020/01/24 15:19:31;;;;;;;40;21.2;;;;;;;10.4;48.97852;941.8144;;;;
2020/01/24 15:21:55;;;;;;;43.1;15.4;;;;;;;9.96;49.50977;941.8795;;;;
2020/01/24 15:24:21;;;;;;;37.2;15.4;;;;;;;9.7;51.99707;941.83;;;;
2020/01/24 15:27:06;;;;;;;27.6;14.3;;;;;;;9.51;53.22754;941.8691;;;;
2020/01/24 15:29:31;;;;;;;26.3;12.2;;;;;;;9.2;54.30469;941.8845;;;;
2020/01/24 15:32:04;;;;;;;29.1;10.8;;;;;;;8.92;53.84961;941.9208;;;;